METAR Data
IDs: Format: Raw Decoded Include TAF

Data at: 2114 UTC 18 Sep 2018

KROA 182054Z 34007KT 10SM SCT045 SCT055 29/17 A2990 RMK AO2 SLP112 T02890172 56009
KROA 181954Z 33006KT 10SM SCT046 BKN060 28/18 A2991 RMK AO2 LTG DSNT SE SLP113 T02780178
KROA 181854Z 31008KT 10SM SCT049 BKN060 27/18 A2991 RMK AO2 LTG DSNT SE AND S SLP116 T02720183
KROA 181754Z 33009KT 10SM FEW045 OVC060 26/18 A2993 RMK AO2 LTG DSNT E AND SW SLP123 T02610183 10272 20228 50003
KROA 181654Z 33008KT 10SM SCT043 BKN150 27/18 A2994 RMK AO2 LTG DSNT NE AND E AND W TSE28B34E36 SLP124 T02670178
KROA 181642Z 33007KT 10SM SCT042 27/18 A2993 RMK AO2 LTG DSNT NE AND W TSE28B34E36 T02670178
KROA 181634Z 33009KT 10SM TS BKN041 26/18 A2993 RMK AO2 LTG DSNT NE AND W TSE28B34 T02610178
KROA 181554Z 31014G19KT 10SM BKN040 BKN090 26/18 A2993 RMK AO2 LTG DSNT N SLP121 T02610178
KROA 181454Z 28007KT 10SM SCT042 OVC070 24/18 A2992 RMK AO2 SLP120 T02440178 53008
KROA 181354Z 30006KT 10SM OVC036 24/18 A2992 RMK AO2 SLP118 T02390178
KROA 181254Z 30008G15KT 10SM BKN038 OVC070 24/18 A2989 RMK AO2 SLP109 T02390178
KROA 181154Z 20004KT 10SM BKN034 BKN045 OVC060 23/18 A2990 RMK AO2 SLP111 T02280183 10228 20222 53007
KROA 181054Z 23008KT 10SM BKN034 OVC055 23/18 A2988 RMK AO2 SLP107 T02280183
KROA 180954Z 26007KT 10SM FEW035 OVC060 23/19 A2988 RMK AO2 SLP106 T02280189
KROA 180854Z 26005KT 10SM FEW031 BKN085 OVC110 23/19 A2987 RMK AO2 LTG DSNT N AND SW SLP102 T02280194 56007
KROA 180754Z 26005KT 10SM OVC031 23/20 A2988 RMK AO2 LTG DSNT W AND NW SLP104 T02280200
KROA 180654Z 26004KT 10SM SCT032 SCT065 BKN100 23/20 A2989 RMK AO2 LTG DSNT NW SLP108 T02280200
KROA 180554Z 25006KT 10SM OVC090 23/21 A2990 RMK AO2 SLP111 60000 T02280206 10256 20228 55002
KROA 180454Z 26004KT 10SM FEW025 BKN095 23/21 A2989 RMK AO2 SLP109 T02280206 402940222
KROA 180354Z 23004KT 10SM FEW110 23/21 A2989 RMK AO2 RAE20 SLP109 P0000 T02330206
KROA 180254Z 30003KT 10SM -RA SCT046 SCT055 OVC080 23/22 A2991 RMK AO2 RAE03B43 SLP115 P0000 60000 T02330217 50005
KROA 180154Z 00000KT 10SM -RA SCT035 BKN047 OVC065 24/22 A2991 RMK AO2 RAB39 SLP117 P0000 T02390217
KROA 180054Z 16005KT 10SM BKN060 OVC080 25/21 A2990 RMK AO2 SLP114 T02500206
KROA 172354Z 17004KT 10SM FEW042 SCT050 OVC060 26/20 A2989 RMK AO2 SLP108 T02610200 10294 20256 51003
KROA 172254Z 18005KT 10SM FEW045 OVC055 27/20 A2989 RMK AO2 SLP108 T02670200
KROA 172154Z 18007KT 10SM SCT047 OVC055 27/19 A2989 RMK AO2 SLP107 T02720194
KROA 172054Z 18010KT 10SM BKN042 BKN050 28/20 A2988 RMK AO2 SLP104 T02830200 56017
KROA 171954Z 18012KT 10SM SCT038 BKN050 BKN060 29/20 A2989 RMK AO2 SLP106 T02890200
KROA 171854Z 22012G21KT 10SM FEW037 BKN050 28/19 A2991 RMK AO2 SLP114 T02780194
KROA 171754Z 19009KT 10SM BKN040 OVC048 26/21 A2993 RMK AO2 SLP123 60000 T02610206 10267 20228 58009
KROA 171654Z 20011G15KT 10SM FEW035 OVC046 26/21 A2995 RMK AO2 SLP129 T02610211
KROA 171554Z 18007KT 10SM BKN030 OVC038 24/22 A2996 RMK AO2 RAE04 SLP133 P0000 T02440217
KROA 171501Z 14004KT 9SM -RA FEW009 BKN019 OVC032 23/22 A2996 RMK AO2 P0000 T02330222
KROA 171454Z 15006KT 7SM -RA SCT012 BKN027 OVC034 23/22 A2996 RMK AO2 RAB47 SLP135 P0000 60000 T02330217 55000
KROA 171449Z 14006KT 8SM -RA FEW010 BKN027 OVC034 23/22 A2996 RMK AO2 RAB47 P0000
KROA 171433Z 16007KT 10SM FEW016 BKN030 OVC046 23/22 A2996 RMK AO2 T02330217
KROA 171354Z 11008KT 10SM FEW014 BKN027 OVC035 23/22 A2996 RMK AO2 SLP135 T02330217
KROA 171322Z 14007KT 10SM BKN027 OVC035 23/21 A2997 RMK AO2 T02280211
KROA 171254Z 14008KT 10SM FEW028 BKN037 OVC046 23/21 A2996 RMK AO2 SLP135 T02280211
KROA 171238Z 15011KT 10SM FEW017 BKN037 OVC045 23/21 A2997 RMK AO2 T02280211
KROA 171205Z 13009KT 10SM SCT018 OVC028 23/21 A2996 RMK AO2 T02280211
KROA 171154Z 14008KT 10SM FEW016 BKN030 OVC043 22/21 A2996 RMK AO2 RAB00E38 SLP132 P0047 60136 70298 T02220211 10228 20222 53006
KROA 171140Z 13006KT 10SM FEW009 BKN028 OVC045 22/22 A2996 RMK AO2 RAB00E38 P0047 T02220217
KROA 171136Z 13005KT 9SM -RA BKN014 BKN026 OVC045 22/22 A2996 RMK AO2 RAB00 P0047 T02220217
KROA 171128Z 15005KT 2SM RA BR FEW009 BKN014 OVC024 22/22 A2996 RMK AO2 RAB00 P0046 T02220217
KROA 171110Z 16007KT 1 1/2SM +RA BR BKN009 BKN016 OVC023 22/22 A2995 RMK AO2 RAB00 P0010 T02220217
KROA 171106Z 15008KT 2 1/2SM +RA BR SCT009 BKN014 OVC023 22/22 A2995 RMK AO2 VIS 1 1/4V5 RAB00 P0003 T02220217
KROA 171104Z 14009KT 3SM RA BR FEW009 BKN014 OVC023 22/22 A2995 RMK AO2 RAB00 P0001 T02220217
KROA 171054Z 13009KT 10SM FEW016 BKN026 OVC040 23/21 A2995 RMK AO2 RAE08B20E29 SLP129 P0001 T02280211
KROA 171031Z 13011KT 10SM SCT011 BKN016 OVC043 22/22 A2995 RMK AO2 RAE08B20E29 P0001 T02220217
KROA 171029Z 13010KT 10SM BKN013 BKN021 OVC044 22/22 A2994 RMK AO2 RAE08B20E29 P0001 T02220217
KROA 171011Z 13008KT 10SM SCT007 OVC015 22/22 A2994 RMK AO2 RAE08 P0001 T02220217
KROA 170954Z 13009KT 8SM -RA BKN006 OVC013 22/22 A2994 RMK AO2 SLP127 P0009 T02220217
KROA 170945Z 13008KT 5SM -RA BR BKN008 BKN014 OVC023 22/22 A2994 RMK AO2 P0009 T02220217
KROA 170940Z 12008KT 9SM -RA FEW005 BKN016 OVC023 23/22 A2994 RMK AO2 P0008 T02280217